Loisir ou Compétition : Rejoignez un Club de la Fédération

Résultats

Grand-prix de la Vallée du Bouchet

GRAND BORNAND

FS Hommes

Jury de Compétition

Délégué Technique :
FOURNIER LANGLAIS FABIEN (MB)
D.T. Adjoint :
 
Dir. Epreuve :
ROCHET JOANNY (MB)

Caractéristiques de la Piste

Piste :
LES PLANS
Distance :
4,0 km
Point Haut :
 
Point Bas :
 
Montée Tot. :
 
Montée Max. :
 
Homologation :
2018-3-2

Pénalité Appliquée :
0.0000
Coefficient :
 

Catégorie :
U15
Style :
C
Clt Dos Clt/Cat Code An Nom Prénom Com Club Temps Ecart Points
Classés
1 132 1/U15 FFS2670259 2004 BLANCHARD TITOUAN MB CS LA CLUSAZ 13:20.0 00:00.0 0.00
2 131 2/U15 FFS2650224 2004 LAUSENAZ ANTHONY MB CHABLAIS NOR 14:03.4 00:43.4 43.40
3 120 3/U15 FFS2661783 2004 JOUANNAUD LIONEL MB CS CHAMONIX 14:05.6 00:45.6 45.60
4 125 4/U15 FFS2686681 2005 DELOCHE LINO MB SC GD BORNAN 14:15.0 00:55.0 55.00
5 128 5/U15 FFS2686938 2005 VALLEIX JORIS MB SCNP ROCHOIS 14:18.8 00:58.8 58.80
6 129 6/U15 FFS2670262 2004 MICHEL JULIEN MB CS LA CLUSAZ 14:19.0 00:59.0 59.00
7 117 7/U15 FFS2681663 2004 LEVET GASTON MB SCNP ROCHOIS 14:19.6 00:59.6 59.60
8 127 8/U15 FFS2686663 2005 PERRILLAT BOITEUX ANTHONY MB SC GD BORNAN 14:20.8 01:00.8 60.80
9 110 9/U15 FFS2682178 2004 BIOLLAZ THOMAS MB PRAZ LYS-SOM 14:25.0 01:05.0 65.00
10 135 10/U15 FFS2681664 2004 PERROUD DORIAN MB SCNP ROCHOIS 14:25.1 01:05.1 65.10
11 112 11/U15 FFS2678952 2004 FAVRE BONVIN TITOUAN MB SC GD BORNAN 14:28.9 01:08.9 68.90
12 130 12/U15 FFS2664692 2004 GROS MICHELE MB SC CONTAMINE 14:32.2 01:12.2 72.20
13 123 13/U15 FFS2662962 2004 PANISSET SIMON MB SC GD BORNAN 14:32.3 01:12.3 72.30
14 118 14/U15 FFS2686242 2005 VIGUIER QUENTIN MB CS LA CLUSAZ 14:40.3 01:20.3 80.30
15 102 15/U15 FFS2684607 2004 ADAM NINO MB CS CHAMONIX 14:40.9 01:20.9 80.90
16 60 16/U15 FFS2686282 2004 DIERSTEIN ARTHUR MB CNG 14:45.5 01:25.5 85.50
17 119 17/U15 FFS2648791 2004 FORTINA ADAM MB SC CONTAMINE 14:46.9 01:26.9 86.90
18 133 18/U15 FFS2682762 2004 CALANDRY RAPHAEL MB DRAGONS ANNY 14:51.3 01:31.3 91.30
19 108 19/U15 FFS2676910 2005 CLAVEL SIMON MB CS LA CLUSAZ 14:51.9 01:31.9 91.90
20 116 20/U15 FFS2680962 2004 PERRILLAT COLLOMB MATHEO MB SC GD BORNAN 14:55.1 01:35.1 95.10
21 109 21/U15 FFS2686695 2005 PERRILLAT BOTTONET JUDICA MB SC GD BORNAN 14:59.4 01:39.4 99.40
22 101 22/U15 FFS2673756 2005 PEYRON ARTHUR MB CS CHAMONIX 14:59.7 01:39.7 99.70
23 113 23/U15 FFS2682010 2004 BONAVENT THOMAS MB SC D'AGY 15:01.7 01:41.7 101.70
24 124 24/U15 FFS2670261 2004 FAVRE REGUILLON MATHELYO MB CS LA CLUSAZ 15:05.8 01:45.8 105.80
25 121 25/U15 FFS2681320 2004 LEBARD JAN MB DRAGONS ANNY 15:09.1 01:49.1 109.10
26 111 26/U15 FFS2681588 2004 GENTET RONAN MB CS ARGENTIER 15:11.4 01:51.4 111.40
27 126 27/U15 FFS2671565 2005 COLOMBAN ALEXIS MB SCNP ROCHOIS 15:13.2 01:53.2 113.20
28 115 28/U15 FFS2696374 2004 FUCHS ARTHUR MB CS LA CLUSAZ 15:17.6 01:57.6 117.60
29 114 29/U15 FFS2667744 2005 BIZZOCCHI ESTEBAN MB SC D'AGY 15:18.7 01:58.7 118.70
30 105 30/U15 FFS2686793 2005 MARIE ADELIN MB SC D'AGY 15:26.6 02:06.6 126.60
31 96 31/U15 FFS2681277 2004 PETILLEON TAO MB PRAZ LYS-SOM 15:26.9 02:06.9 126.90
32 92 32/U15 FFS2682008 2004 PRIVE CONSTANT MB SC D'AGY 15:28.4 02:08.4 128.40
33 98 33/U15 FFS2666324 2005 FAVRE FELIX KILLIAN MB SC GD BORNAN 15:35.3 02:15.3 135.30
34 122 34/U15 FFS2686939 2005 GRENARD MAX MB SCNP ROCHOIS 15:37.5 02:17.5 137.50
35 58 35/U15 FFS2692551 2004 PEIGNE VICTOR MB CNG 15:42.0 02:22.0 142.00
36 93 36/U15 FFS2681171 2005 LUZET HUGO MB CS LA CLUSAZ 15:43.0 02:23.0 143.00
37 94 37/U15 FFS2686538 2005 JOMIER LOIS MB DRAGONS ANNY 15:43.3 02:23.3 143.30
38 95 38/U15 FFS2691698 2004 GEORGES THIBAULT MB SALLANCHES 15:46.1 02:26.1 146.10
39 106 39/U15 FFS2682024 2004 MILLAN SYLVAIN MB VILLARD/BOEG 15:56.0 02:36.0 156.00
40 91 40/U15 FFS2681002 2004 GONIN LEANDRE MB SC GD BORNAN 16:01.7 02:41.7 161.70
41 59 41/U15 FFS2692552 2005 PETROD BASTIEN MB CNG 16:02.5 02:42.5 162.50
42 103 42/U15 FFS2668129 2004 BAUD CESAR MB LES GETS S.C 16:03.2 02:43.2 163.20
43 100 43/U15 FFS2681260 2004 BOEHLER DORIAN MB LES GETS S.C 16:04.7 02:44.7 164.70
44 99 44/U15 FFS2668666 2004 DOUKARI ALEXIS MB SALLANCHES 16:11.0 02:51.0 171.00
45 87 45/U15 FFS2660349 2004 DELOCHE TRISTAN MB SC GD BORNAN 16:14.2 02:54.2 174.20
46 57 46/U15 FFS2682725 2004 COINTEPAS COLIN MB CNG 16:14.5 02:54.5 174.50
47 97 47/U15 FFS2686795 2005 DELERCE THIBAULT MB SC D'AGY 16:14.8 02:54.8 174.80
48 104 48/U15 FFS2666342 2005 OUVRIER BUFFET JULES MB CS LA CLUSAZ 16:20.2 03:00.2 180.20
49 84 49/U15 FFS2686543 2005 ROMERI NATHAN MB DRAGONS ANNY 16:24.8 03:04.8 184.80
50 79 50/U15 FFS2687035 2005 CORNU MATHIEU MB CS CHAMONIX 16:33.7 03:13.7 193.70
51 82 51/U15 FFS2666956 2004 BLAIZE REMI MB VILLARD/BOEG 16:35.5 03:15.5 195.50
51 86 51/U15 FFS2681169 2004 JOSSERAND ANTOINE MB CS LA CLUSAZ 16:35.5 03:15.5 195.50
53 83 53/U15 FFS2688678 2005 REPELLIN CHARLES MB VILLARD/BOEG 16:39.4 03:19.4 199.40
54 71 54/U15 FFS2687103 2005 MOREAU SIMEON MB SCNP ROCHOIS 16:51.1 03:31.1 211.10
55 76 55/U15 FFS2680344 2005 DELERCE GASPARD MB LES GETS S.C 16:55.8 03:35.8 215.80
56 85 56/U15 FFS2687102 2005 SYLVESTRE BARON PAUL MB SCNP ROCHOIS 16:57.5 03:37.5 217.50
56 107 56/U15 FFS2687034 2005 FIVEL DEMORET HUGO MB SC CONTAMINE 16:57.5 03:37.5 217.50
58 88 58/U15 FFS2681321 2004 BETRIX ALEXIS MB CHABLAIS NOR 16:57.6 03:37.6 217.60
59 75 59/U15 FFS2686260 2005 BOSSUT AUGUSTIN MB PRAZ LYS-SOM 17:01.6 03:41.6 221.60
60 89 60/U15 FFS2686542 2005 PEYRET TILIEN MB DRAGONS ANNY 17:02.5 03:42.5 222.50
61 81 61/U15 FFS2669366 2004 ROBERT ELOUAN MB SALLANCHES 17:03.9 03:43.9 223.90
62 66 62/U15 FFS2686905 2005 MIR EMARATI MILO MB CS CHAMONIX 17:11.9 03:51.9 231.90
63 77 63/U15 FFS2690481 2005 THABUIS BASILE MB VILLARD/BOEG 17:17.7 03:57.7 237.70
64 68 64/U15 FFS2682327 2004 GURLIAT MATHIS MB SCNP ROCHOIS 17:34.0 04:14.0 254.00
65 67 65/U15 FFS2682466 2004 THEVENOD JULES MB VILLARD/BOEG 17:38.6 04:18.6 258.60
66 62 66/U15 FFS2678687 2005 MILLET DIWAN MB SCNP ROCHOIS 17:42.2 04:22.2 262.20
67 56 67/U15 FFS2692554 2005 ZAVARISE NOAH MB CNG 17:49.8 04:29.8 269.80
68 80 68/U15 FFS2683536 2004 JACQUEMARD SWAN MB CS ARGENTIER 17:55.6 04:35.6 275.60
69 69 69/U15 FFS2681304 2005 PERSONNAZ LOAN MB DRAGONS ANNY 18:01.6 04:41.6 281.60
70 73 70/U15 FFS2688043 2005 MAGNIEZ OSCAR MB DRAGONS ANNY 18:14.8 04:54.8 294.80
71 72 71/U15 FFS2686259 2005 DUCREY BRICE MB PRAZ LYS-SOM 18:23.5 05:03.5 303.50
72 70 72/U15 FFS2690844 2005 HAEBERLI ARTHUR MB CS LA CLUSAZ 18:38.6 05:18.6 318.60
73 74 73/U15 FFS2686672 2005 BROCHANT LUCAS MB SC GD BORNAN 18:41.6 05:21.6 321.60
74 64 74/U15 FFS2663405 2004 JOCHUM ADRIEN MB LES GETS S.C 18:51.6 05:31.6 331.60
75 78 75/U15 FFS2696236 2005 MONGELLAZ JULES MB SC CONTAMINE 18:56.5 05:36.5 336.50
76 61 76/U15 FFS2686535 2005 FAILLENET JORIS MB DRAGONS ANNY 19:34.0 06:14.0 374.00
77 63 77/U15 FFS2686293 2005 GRANGE JUSTIN MB DRAGONS ANNY 21:12.9 07:52.9 472.90
Non partants
65 FFS2686262 2005 LESSERTISSEUX VALENTIN MB PRAZ LYS-SOM
90 FFS2686539 2005 LACROIX MATTHIAS MB DRAGONS ANNY
134 FFS2691994 2004 BELLE CLOT SAMUEL MB SCNP ROCHOIS